Atchison, Kansas
Current Conditions -  °F | °C
As of 10:53 AM on Friday 19 Dec 2014 (Local Time) from KSTJ Reporting Station
Overcast Overcast  
Wind Chill: 22°   Ceiling: 500
Heat Index: 30°   Visibility: 7mi
Dew Point: 28°   Wind: 8mph
Humidity: 92%   Direction: 170°S
Pressure: 30.3"   Gusts: NA
Location:  39.56°N, 95.13°W
Report Text: KSTJ 191653Z 17007KT 7SM OVC005 M01/M02 A3030 RMK AO2 SLP268 T10111022
Loading
Personal Weather Stations






























Interactive Weather Map New forecast layout! Learn more

10-Day Weather Forecast

Advertisements
Track Severe Weather on mobile